createdAt,value
2022-09-16T00:01:55.443Z,21.95
2022-09-16T00:05:02.489Z,22.05
2022-09-16T00:08:09.993Z,20.50
2022-09-16T00:11:17.018Z,21.95
2022-09-16T00:14:26.030Z,21.42
2022-09-16T00:17:31.979Z,22.07
2022-09-16T00:20:38.189Z,20.52
2022-09-16T00:23:45.301Z,19.35
2022-09-16T00:26:51.595Z,21.10
2022-09-16T00:29:56.920Z,21.33
2022-09-16T00:33:03.410Z,24.87
2022-09-16T00:36:19.219Z,20.50
2022-09-16T00:39:24.077Z,22.42
2022-09-16T00:42:31.565Z,21.55
2022-09-16T00:45:39.211Z,24.90
2022-09-16T00:48:46.646Z,21.12
2022-09-16T00:51:54.979Z,24.37
2022-09-16T00:55:01.276Z,23.00
2022-09-16T00:58:08.684Z,21.20
2022-09-16T01:01:14.219Z,20.80
2022-09-16T01:04:23.930Z,23.67
2022-09-16T01:07:29.138Z,23.07
2022-09-16T01:10:38.100Z,25.55
2022-09-16T01:13:44.033Z,21.23
2022-09-16T01:16:52.117Z,27.93
2022-09-16T01:20:36.271Z,21.50
2022-09-16T01:24:03.056Z,20.45
2022-09-16T01:27:28.062Z,20.88
2022-09-16T01:31:08.140Z,24.05
2022-09-16T01:34:23.794Z,18.35
2022-09-16T01:37:49.081Z,22.77
2022-09-16T01:41:16.447Z,18.65
2022-09-16T01:44:41.503Z,20.08
2022-09-16T01:48:19.488Z,20.48
2022-09-16T01:51:38.520Z,20.68
2022-09-16T01:54:57.199Z,21.07
2022-09-16T01:58:12.991Z,21.07
2022-09-16T02:01:33.044Z,21.80
2022-09-16T02:04:47.991Z,21.68
2022-09-16T02:07:56.748Z,23.10
2022-09-16T02:11:07.946Z,22.00
2022-09-16T02:14:36.719Z,19.95
2022-09-16T02:17:43.876Z,19.27
2022-09-16T02:20:53.726Z,18.70
2022-09-16T02:24:04.815Z,19.67
2022-09-16T02:27:15.194Z,18.80
2022-09-16T02:30:24.710Z,20.75
2022-09-16T02:33:30.126Z,21.15
2022-09-16T02:36:37.906Z,20.62
2022-09-16T02:39:46.828Z,19.62
2022-09-16T02:42:53.238Z,25.12
2022-09-16T02:46:24.603Z,25.90
2022-09-16T02:49:56.401Z,26.87
2022-09-16T02:53:18.548Z,26.35
2022-09-16T02:56:48.401Z,29.20
2022-09-16T02:59:54.040Z,26.37
2022-09-16T03:03:01.447Z,23.95
2022-09-16T03:06:29.348Z,24.27
2022-09-16T03:09:36.607Z,21.95
2022-09-16T03:13:05.124Z,22.05
2022-09-16T03:16:26.809Z,24.77
2022-09-16T03:20:07.302Z,23.12
2022-09-16T03:23:42.888Z,21.97
2022-09-16T03:27:01.326Z,21.15
2022-09-16T03:30:19.399Z,30.48
2022-09-16T03:34:03.755Z,27.62
2022-09-16T03:37:24.935Z,31.37
2022-09-16T03:40:32.268Z,30.52
2022-09-16T03:43:38.498Z,30.00
2022-09-16T03:46:44.859Z,30.40
2022-09-16T03:49:51.521Z,29.42
2022-09-16T03:52:59.906Z,28.07
2022-09-16T03:56:06.236Z,27.73
2022-09-16T03:59:14.403Z,29.00
2022-09-16T04:02:20.869Z,29.23
2022-09-16T04:05:27.442Z,30.20
2022-09-16T04:08:34.219Z,29.45
2022-09-16T04:11:42.356Z,32.60
2022-09-16T04:14:49.503Z,35.52
2022-09-16T04:17:55.158Z,33.67
2022-09-16T04:21:01.359Z,30.02
2022-09-16T04:24:12.646Z,30.48
2022-09-16T04:27:14.656Z,27.82
2022-09-16T04:30:22.342Z,29.75
2022-09-16T04:33:28.648Z,27.70
2022-09-16T04:36:35.282Z,27.58
2022-09-16T04:39:43.338Z,28.07
2022-09-16T04:42:49.297Z,28.35
2022-09-16T04:45:55.580Z,28.50
2022-09-16T04:49:08.149Z,30.10
2022-09-16T04:52:13.761Z,29.50
2022-09-16T04:55:20.837Z,32.83
2022-09-16T04:58:28.170Z,27.70
2022-09-16T05:01:37.971Z,30.80
2022-09-16T05:04:44.549Z,32.33
2022-09-16T05:07:52.376Z,30.70
2022-09-16T05:10:59.886Z,29.15
2022-09-16T05:14:06.923Z,27.75
2022-09-16T05:17:33.163Z,26.60
2022-09-16T05:20:23.317Z,28.00
2022-09-16T05:23:28.846Z,32.95
2022-09-16T05:26:43.640Z,28.25
2022-09-16T05:29:50.033Z,29.00
2022-09-16T05:32:57.213Z,30.10
2022-09-16T05:36:03.012Z,42.13
2022-09-16T05:39:24.774Z,30.08
2022-09-16T05:42:16.997Z,29.80
2022-09-16T05:45:30.048Z,29.82
2022-09-16T05:48:32.774Z,34.23
2022-09-16T05:51:38.888Z,35.17
2022-09-16T05:54:45.033Z,29.02
2022-09-16T05:57:50.970Z,26.62
2022-09-16T06:00:57.308Z,28.12
2022-09-16T06:04:04.893Z,25.85
2022-09-16T06:07:12.039Z,25.65
2022-09-16T06:10:16.998Z,25.85
2022-09-16T06:13:22.886Z,25.40
2022-09-16T06:16:32.161Z,25.55
2022-09-16T06:19:39.497Z,24.95
2022-09-16T06:22:46.859Z,26.23
2022-09-16T06:25:51.817Z,23.77
2022-09-16T06:28:59.192Z,23.05
2022-09-16T06:32:05.228Z,23.65
2022-09-16T06:35:11.543Z,22.70
2022-09-16T06:38:18.587Z,27.40
2022-09-16T06:41:25.453Z,23.60
2022-09-16T06:44:31.944Z,21.05
2022-09-16T06:47:39.883Z,23.00
2022-09-16T06:50:45.665Z,21.93
2022-09-16T06:53:55.255Z,23.57
2022-09-16T06:57:11.407Z,21.40
2022-09-16T07:00:14.475Z,22.85
2022-09-16T07:03:21.797Z,21.17
2022-09-16T07:06:57.761Z,26.20
2022-09-16T07:09:39.466Z,30.72
2022-09-16T07:12:47.155Z,25.27
2022-09-16T07:16:12.230Z,20.48
2022-09-16T07:19:01.377Z,20.68
2022-09-16T07:22:09.824Z,21.35
2022-09-16T07:25:19.283Z,21.40
2022-09-16T07:28:26.084Z,19.27
2022-09-16T07:31:39.626Z,17.27
2022-09-16T07:34:48.326Z,18.55
2022-09-16T07:37:54.650Z,19.23
2022-09-16T07:41:01.797Z,18.15
2022-09-16T07:44:09.138Z,16.73
2022-09-16T07:47:21.431Z,16.75
2022-09-16T07:50:25.933Z,19.10
2022-09-16T07:53:35.666Z,16.15
2022-09-16T07:56:47.739Z,15.32
2022-09-16T08:03:04.714Z,13.62
2022-09-16T08:06:24.725Z,14.38
2022-09-16T08:09:44.231Z,14.07
2022-09-16T08:12:43.979Z,15.30
2022-09-16T08:15:50.094Z,12.93
2022-09-16T08:19:10.258Z,14.55
2022-09-16T08:22:15.947Z,13.95
2022-09-16T08:25:22.364Z,16.62
2022-09-16T08:28:40.036Z,30.35
2022-09-16T08:31:39.249Z,18.42
2022-09-16T08:34:47.064Z,14.05
2022-09-16T08:37:54.443Z,15.85
2022-09-16T08:41:00.501Z,15.25
2022-09-16T08:44:54.192Z,20.05
2022-09-16T08:48:28.498Z,15.45
2022-09-16T08:51:34.996Z,14.78
2022-09-16T08:55:05.518Z,14.70
2022-09-16T08:58:31.581Z,18.30
2022-09-16T09:02:24.447Z,13.90
2022-09-16T09:05:34.421Z,20.57
2022-09-16T09:08:58.693Z,14.95
2022-09-16T09:12:26.731Z,13.83
2022-09-16T09:15:48.603Z,14.20
2022-09-16T09:19:33.760Z,14.05
2022-09-16T09:23:09.166Z,9.25
2022-09-16T09:26:31.065Z,9.10
2022-09-16T09:30:04.490Z,7.92
2022-09-16T09:33:46.637Z,10.72
2022-09-16T09:37:07.796Z,10.25
2022-09-16T09:40:44.308Z,12.18
2022-09-16T09:44:02.979Z,13.83
2022-09-16T09:47:11.862Z,9.73
2022-09-16T09:50:44.473Z,9.33
2022-09-16T09:54:19.269Z,10.20
2022-09-16T09:57:58.092Z,10.82
2022-09-16T10:01:05.622Z,17.85
2022-09-16T10:04:11.733Z,14.73
2022-09-16T10:07:19.644Z,40.43
2022-09-16T10:10:33.596Z,14.65
2022-09-16T10:14:06.205Z,18.52
2022-09-16T10:17:24.647Z,11.65
2022-09-16T10:24:15.650Z,11.50
2022-09-16T10:27:43.992Z,11.48
2022-09-16T10:31:09.274Z,10.93
2022-09-16T10:34:15.839Z,14.03
2022-09-16T10:37:35.635Z,15.60
2022-09-16T10:40:41.254Z,17.05
2022-09-16T10:43:48.086Z,15.32
2022-09-16T10:47:43.317Z,16.25
2022-09-16T10:51:08.511Z,15.98
2022-09-16T10:54:20.998Z,15.13
2022-09-16T10:58:14.055Z,14.23
2022-09-16T11:02:03.806Z,11.40
2022-09-16T11:06:04.009Z,10.95
2022-09-16T11:09:27.565Z,7.40
2022-09-16T11:13:07.496Z,7.80
2022-09-16T11:16:53.522Z,6.20
2022-09-16T11:20:25.943Z,12.85
2022-09-16T11:24:17.611Z,8.03
2022-09-16T11:27:42.352Z,10.60
2022-09-16T11:30:55.309Z,8.25
2022-09-16T11:34:19.083Z,8.33
2022-09-16T11:37:45.989Z,7.55
2022-09-16T11:41:04.079Z,11.45
2022-09-16T11:44:30.479Z,8.65
2022-09-16T11:48:00.187Z,8.43
2022-09-16T11:51:33.495Z,8.10
2022-09-16T11:55:13.257Z,10.82
2022-09-16T11:58:26.513Z,10.63
2022-09-16T12:01:59.219Z,8.43
2022-09-16T12:05:35.001Z,9.78
2022-09-16T12:09:15.771Z,11.00
2022-09-16T12:12:33.414Z,12.03
2022-09-16T12:16:08.033Z,14.53
2022-09-16T12:19:42.976Z,12.28
2022-09-16T12:22:53.222Z,12.05
2022-09-16T12:26:19.619Z,13.50
2022-09-16T12:29:49.265Z,10.58
2022-09-16T12:33:30.966Z,12.58
2022-09-16T12:36:46.590Z,12.75
2022-09-16T12:39:53.757Z,11.73
2022-09-16T12:43:43.417Z,12.82
2022-09-16T12:47:43.365Z,11.35
2022-09-16T12:51:08.479Z,12.82
2022-09-16T12:54:51.189Z,9.75
2022-09-16T12:58:13.012Z,10.03
2022-09-16T13:01:42.834Z,8.78
2022-09-16T13:04:57.323Z,8.78
2022-09-16T13:08:07.936Z,8.90
2022-09-16T13:12:14.873Z,6.85
2022-09-16T13:14:43.228Z,11.57
2022-09-16T13:17:57.610Z,8.48
2022-09-16T13:21:14.780Z,8.50
2022-09-16T13:24:29.734Z,8.80
2022-09-16T13:30:52.819Z,10.18
2022-09-16T13:34:15.921Z,9.80
2022-09-16T13:37:29.612Z,8.58
2022-09-16T13:40:42.666Z,8.88
2022-09-16T13:44:05.085Z,8.95
2022-09-16T13:47:31.149Z,8.95
2022-09-16T13:50:41.396Z,8.30
2022-09-16T13:53:52.401Z,7.75
2022-09-16T13:57:26.373Z,8.93
2022-09-16T14:00:55.169Z,9.05
2022-09-16T14:04:39.057Z,9.70
2022-09-16T14:08:14.242Z,10.10
2022-09-16T14:11:28.806Z,9.65
2022-09-16T14:14:49.105Z,9.80
2022-09-16T14:18:00.541Z,11.20
2022-09-16T14:21:28.234Z,11.25
2022-09-16T14:24:36.549Z,10.08
2022-09-16T14:27:47.939Z,10.43
2022-09-16T14:31:07.231Z,12.93
2022-09-16T14:34:18.200Z,9.95
2022-09-16T14:37:28.814Z,11.53
2022-09-16T14:40:37.627Z,11.28
2022-09-16T14:43:43.692Z,15.53
2022-09-16T14:46:50.199Z,18.17
2022-09-16T14:49:55.152Z,16.15
2022-09-16T14:53:16.065Z,18.98
2022-09-16T14:56:32.457Z,15.35
2022-09-16T14:59:43.885Z,13.85
2022-09-16T15:02:59.454Z,12.95
2022-09-16T15:06:06.396Z,11.80
2022-09-16T15:09:25.374Z,15.40
2022-09-16T15:12:55.652Z,15.40
2022-09-16T15:16:23.670Z,13.68
2022-09-16T15:19:37.393Z,12.58
2022-09-16T15:22:43.018Z,13.40
2022-09-16T15:25:49.483Z,13.75
2022-09-16T15:29:11.927Z,15.93
2022-09-16T15:32:37.049Z,14.58
2022-09-16T15:35:44.981Z,14.53
2022-09-16T15:38:51.338Z,17.65
2022-09-16T15:41:58.842Z,19.17
2022-09-16T15:45:07.099Z,19.80
2022-09-16T15:48:18.649Z,16.75
2022-09-16T15:51:55.585Z,18.30
2022-09-16T15:55:11.339Z,18.67
2022-09-16T15:58:34.605Z,17.87
2022-09-16T16:02:02.091Z,23.42
2022-09-16T16:05:08.587Z,19.75
2022-09-16T16:08:17.111Z,21.27
2022-09-16T16:11:26.283Z,19.52
2022-09-16T16:14:33.366Z,32.28
2022-09-16T16:17:39.875Z,20.92
2022-09-16T16:20:47.608Z,24.15
2022-09-16T16:23:53.916Z,21.80
2022-09-16T16:27:03.912Z,19.27
2022-09-16T16:30:10.369Z,22.80
2022-09-16T16:33:20.135Z,25.92
2022-09-16T16:36:30.116Z,27.27
2022-09-16T16:39:36.817Z,27.07
2022-09-16T16:42:43.729Z,25.32
2022-09-16T16:45:49.182Z,28.20
2022-09-16T16:48:57.408Z,29.25
2022-09-16T16:52:07.511Z,30.60
2022-09-16T16:55:14.647Z,33.83
2022-09-16T16:58:20.257Z,33.30
2022-09-16T17:01:28.372Z,31.85
2022-09-16T17:04:35.189Z,32.00
2022-09-16T17:07:43.069Z,31.85
2022-09-16T17:10:51.163Z,29.98
2022-09-16T17:13:59.656Z,42.65
2022-09-16T17:17:06.039Z,69.62
2022-09-16T17:20:13.209Z,46.45
2022-09-16T17:23:19.079Z,45.45
2022-09-16T17:26:26.869Z,51.63
2022-09-16T17:29:33.545Z,45.80
2022-09-16T17:32:38.241Z,44.05
2022-09-16T17:35:43.138Z,45.10
2022-09-16T17:38:48.451Z,48.17
2022-09-16T17:41:55.518Z,54.42
2022-09-16T17:45:01.281Z,56.45
2022-09-16T17:48:07.059Z,55.50
2022-09-16T17:51:11.928Z,49.25
2022-09-16T17:54:17.578Z,44.65
2022-09-16T17:57:23.227Z,43.38
2022-09-16T18:00:30.081Z,43.73
2022-09-16T18:03:36.038Z,44.65
2022-09-16T18:06:48.527Z,35.10
2022-09-16T18:09:54.578Z,36.95
2022-09-16T18:13:02.555Z,35.10
2022-09-16T18:16:09.715Z,35.38
2022-09-16T18:19:16.414Z,36.48
2022-09-16T18:22:23.978Z,37.08
2022-09-16T18:25:32.516Z,34.27
2022-09-16T18:29:05.177Z,32.67
2022-09-16T18:31:46.422Z,40.98
2022-09-16T18:34:51.852Z,57.33
2022-09-16T18:37:57.732Z,58.73
2022-09-16T18:41:04.110Z,65.28
2022-09-16T18:44:15.906Z,61.37
2022-09-16T18:47:22.233Z,48.93
2022-09-16T18:50:29.243Z,50.55
2022-09-16T18:53:34.857Z,54.70
2022-09-16T18:56:40.910Z,42.27
2022-09-16T18:59:47.233Z,56.88
2022-09-16T19:02:54.766Z,81.12
2022-09-16T19:06:12.821Z,44.23
2022-09-16T19:09:20.548Z,39.03
2022-09-16T19:12:27.502Z,38.88
2022-09-16T19:15:34.528Z,31.90
2022-09-16T19:18:40.774Z,32.03
2022-09-16T19:21:48.116Z,30.00
2022-09-16T19:24:54.149Z,28.42
2022-09-16T19:28:00.999Z,29.23
2022-09-16T19:31:05.781Z,31.50
2022-09-16T19:34:12.319Z,33.70
2022-09-16T19:37:18.748Z,32.03
2022-09-16T19:40:27.590Z,31.93
2022-09-16T19:43:36.461Z,32.30
2022-09-16T19:46:41.715Z,29.63
2022-09-16T19:49:48.420Z,33.42
2022-09-16T19:52:56.962Z,31.65
2022-09-16T19:56:04.311Z,30.12
2022-09-16T19:59:12.504Z,30.32
2022-09-16T20:02:19.534Z,49.00
2022-09-16T20:05:28.089Z,34.92
2022-09-16T20:08:33.761Z,33.18
2022-09-16T20:11:41.731Z,33.08
2022-09-16T20:14:47.915Z,32.35
2022-09-16T20:17:55.215Z,34.67
2022-09-16T20:20:59.975Z,33.45
2022-09-16T20:24:06.158Z,39.65
2022-09-16T20:27:11.913Z,37.93
2022-09-16T20:30:17.424Z,33.73
2022-09-16T20:33:22.965Z,35.30
2022-09-16T20:36:33.006Z,38.13
2022-09-16T20:39:40.497Z,39.95
2022-09-16T20:42:45.505Z,38.17
2022-09-16T20:45:51.998Z,36.17
2022-09-16T20:48:58.134Z,38.35
2022-09-16T20:52:05.273Z,44.35
2022-09-16T20:55:15.258Z,50.20
2022-09-16T20:58:20.248Z,45.88
2022-09-16T21:01:32.947Z,49.03
2022-09-16T21:04:39.393Z,39.47
2022-09-16T21:07:46.237Z,40.78
2022-09-16T21:10:55.491Z,42.85
2022-09-16T21:14:09.843Z,39.88
2022-09-16T21:17:16.872Z,38.05
2022-09-16T21:20:24.991Z,33.65
2022-09-16T21:23:32.468Z,31.60
2022-09-16T21:26:41.662Z,31.10
2022-09-16T21:29:47.802Z,30.85
2022-09-16T21:32:53.813Z,34.25
2022-09-16T21:36:07.109Z,34.20
2022-09-16T21:39:15.025Z,39.60
2022-09-16T21:42:20.779Z,40.28
2022-09-16T21:45:26.944Z,45.43
2022-09-16T21:48:34.322Z,44.70
2022-09-16T21:51:42.819Z,42.70
2022-09-16T21:54:47.974Z,53.02
2022-09-16T21:57:54.699Z,47.38
2022-09-16T22:01:00.920Z,46.37
2022-09-16T22:04:12.669Z,53.25
2022-09-16T22:07:18.245Z,38.25
2022-09-16T22:10:25.318Z,40.10
2022-09-16T22:13:31.908Z,36.28
2022-09-16T22:16:39.786Z,36.50
2022-09-16T22:19:46.349Z,37.10
2022-09-16T22:22:54.186Z,37.50
2022-09-16T22:26:00.343Z,36.73
2022-09-16T22:29:06.134Z,32.58
2022-09-16T22:32:13.899Z,33.67
2022-09-16T22:35:20.428Z,32.60
2022-09-16T22:38:26.043Z,32.28
2022-09-16T22:41:31.630Z,36.75
2022-09-16T22:44:38.085Z,35.23
2022-09-16T22:47:44.149Z,32.40
2022-09-16T22:50:49.892Z,35.90
2022-09-16T22:53:56.691Z,31.97
2022-09-16T22:57:03.063Z,37.10
2022-09-16T23:00:09.416Z,58.65
2022-09-16T23:03:15.981Z,67.00
2022-09-16T23:06:26.970Z,57.17
2022-09-16T23:09:32.319Z,44.63
2022-09-16T23:12:39.191Z,52.17
2022-09-16T23:15:45.351Z,42.60
2022-09-16T23:18:52.590Z,61.45
2022-09-16T23:21:58.418Z,46.48
2022-09-16T23:25:05.155Z,31.45
2022-09-16T23:28:12.330Z,30.45
2022-09-16T23:31:24.028Z,41.35
2022-09-16T23:34:33.472Z,33.80
2022-09-16T23:37:38.712Z,31.75
2022-09-16T23:40:47.716Z,38.65
2022-09-16T23:43:54.157Z,29.02
2022-09-16T23:47:00.556Z,35.90
2022-09-16T23:50:07.370Z,34.70
2022-09-16T23:53:14.188Z,64.53
2022-09-16T23:56:23.383Z,62.35
2022-09-16T23:59:29.643Z,82.72
